Time;durP1;ratioP1;P1;durP2;ratioP2;P2;SDS_P1;SDS_P2;PMS_P1;PMS_P2;Temp;Humidity;BMP_temperature;BMP_pressure;BME280_temperature;BME280_humidity;BME280_pressure;Samples;Min_cycle;Max_cycle;Signal;HPM_P1;HPM_P2
2021/05/08 00:01:22;;;;;;;9.05;5.68;;;;;;;;;;4917415;29;20484;-74
2021/05/08 00:03:48;;;;;;;8.63;5.72;;;;;;;;;;4932966;29;20052;-74
2021/05/08 00:06:14;;;;;;;6.00;5.38;;;;;;;;;;4918119;29;20048;-74
2021/05/08 00:08:40;;;;;;;5.95;4.85;;;;;;;;;;4918639;29;20494;-74
2021/05/08 00:11:06;;;;;;;7.32;4.97;;;;;;;;;;4918044;29;20443;-74
2021/05/08 00:13:32;;;;;;;7.00;5.10;;;;;;;;;;4918166;29;20052;-74
2021/05/08 00:15:59;;;;;;;6.88;4.85;;;;;;;;;;4917824;29;20484;-74
2021/05/08 00:18:25;;;;;;;7.38;5.43;;;;;;;;;;4916982;29;20107;-74
2021/05/08 00:20:51;;;;;;;6.40;5.53;;;;;;;;;;4917537;29;20055;-74
2021/05/08 00:23:17;;;;;;;7.80;5.68;;;;;;;;;;4916966;29;20154;-73
2021/05/08 00:25:43;;;;;;;6.43;4.75;;;;;;;;;;4917639;29;20052;-74
2021/05/08 00:28:09;;;;;;;8.00;5.55;;;;;;;;;;4917789;29;20052;-73
2021/05/08 00:30:35;;;;;;;8.32;5.38;;;;;;;;;;4918001;29;20095;-73
2021/05/08 00:33:01;;;;;;;9.45;5.10;;;;;;;;;;4917821;29;20056;-73
2021/05/08 00:35:27;;;;;;;8.23;5.75;;;;;;;;;;4917650;29;20056;-73
2021/05/08 00:37:53;;;;;;;8.40;5.95;;;;;;;;;;4917668;29;20450;-74
2021/05/08 00:40:19;;;;;;;8.95;5.95;;;;;;;;;;4917734;29;20491;-73
2021/05/08 00:42:45;;;;;;;6.40;5.40;;;;;;;;;;4917750;29;20471;-74
2021/05/08 00:45:12;;;;;;;10.73;6.28;;;;;;;;;;4917538;29;20459;-73
2021/05/08 00:47:51;;;;;;;6.43;5.32;;;;;;;;;;4917374;29;20052;-73
2021/05/08 00:50:19;;;;;;;9.27;5.32;;;;;;;;;;4916524;29;20115;-73
2021/05/08 00:52:45;;;;;;;8.45;5.55;;;;;;;;;;4916474;29;20096;-73
2021/05/08 00:55:11;;;;;;;8.43;5.70;;;;;;;;;;4916013;29;20048;-73
2021/05/08 00:57:37;;;;;;;6.38;4.78;;;;;;;;;;4916087;29;20111;-73
2021/05/08 01:00:08;;;;;;;6.68;5.10;;;;;;;;;;4916181;29;20048;-73
2021/05/08 01:02:35;;;;;;;5.35;4.85;;;;;;;;;;4917451;29;20052;-73
2021/05/08 01:05:01;;;;;;;6.63;4.80;;;;;;;;;;4915781;29;20044;-73
2021/05/08 01:07:27;;;;;;;5.65;4.82;;;;;;;;;;4915830;29;20120;-72
2021/05/08 01:09:53;;;;;;;5.93;4.85;;;;;;;;;;4916110;29;20393;-73
2021/05/08 01:12:20;;;;;;;6.22;5.15;;;;;;;;;;4916078;29;20059;-73
2021/05/08 01:14:46;;;;;;;7.10;5.03;;;;;;;;;;4900290;29;20052;-73
2021/05/08 01:17:12;;;;;;;7.07;5.00;;;;;;;;;;4916644;29;20052;-73
2021/05/08 01:19:38;;;;;;;5.57;4.75;;;;;;;;;;4915975;29;20116;-73
2021/05/08 01:22:04;;;;;;;6.00;4.53;;;;;;;;;;4915553;29;20092;-74
2021/05/08 01:24:31;;;;;;;5.32;4.72;;;;;;;;;;4917080;29;20467;-73
2021/05/08 01:26:57;;;;;;;5.60;5.00;;;;;;;;;;4931099;29;20048;-73
2021/05/08 01:29:23;;;;;;;6.18;4.38;;;;;;;;;;4931437;29;20083;-73
2021/05/08 01:31:49;;;;;;;5.47;4.57;;;;;;;;;;4915985;29;20079;-73
2021/05/08 01:34:16;;;;;;;7.00;4.90;;;;;;;;;;4916853;29;20395;-73
2021/05/08 01:36:42;;;;;;;5.55;4.95;;;;;;;;;;4915232;29;20048;-73
2021/05/08 01:39:08;;;;;;;10.07;4.80;;;;;;;;;;4915385;29;20111;-72
2021/05/08 01:41:34;;;;;;;6.97;5.72;;;;;;;;;;4916662;29;20476;-72
2021/05/08 01:44:01;;;;;;;6.25;5.07;;;;;;;;;;4899658;29;20052;-72
2021/05/08 01:46:27;;;;;;;5.32;4.70;;;;;;;;;;4897027;29;20049;-74
2021/05/08 01:48:59;;;;;;;6.03;4.40;;;;;;;;;;4915818;29;20059;-73
2021/05/08 01:51:25;;;;;;;6.50;5.00;;;;;;;;;;4915347;29;20063;-73
2021/05/08 01:53:51;;;;;;;7.63;5.10;;;;;;;;;;4916315;29;20055;-72
2021/05/08 01:56:18;;;;;;;7.97;4.68;;;;;;;;;;4916014;29;20044;-72
2021/05/08 01:58:44;;;;;;;5.57;4.90;;;;;;;;;;4916236;29;20052;-73
2021/05/08 02:01:10;;;;;;;5.97;5.10;;;;;;;;;;4916114;29;20056;-72
2021/05/08 02:03:40;;;;;;;4.82;4.30;;;;;;;;;;4916510;29;20055;-73
2021/05/08 02:06:06;;;;;;;4.97;4.47;;;;;;;;;;4914496;29;20088;-73
2021/05/08 02:08:32;;;;;;;5.57;4.72;;;;;;;;;;4916198;29;20111;-73
2021/05/08 02:10:58;;;;;;;5.07;4.55;;;;;;;;;;4921168;29;20056;-73
2021/05/08 02:13:24;;;;;;;5.78;4.68;;;;;;;;;;4916221;29;20052;-73
2021/05/08 02:15:50;;;;;;;5.38;4.38;;;;;;;;;;4930267;29;20095;-73
2021/05/08 02:18:16;;;;;;;5.32;4.55;;;;;;;;;;4930522;29;20055;-73
2021/05/08 02:20:44;;;;;;;6.63;5.03;;;;;;;;;;4930488;29;20056;-73
2021/05/08 02:23:12;;;;;;;5.60;4.10;;;;;;;;;;4914708;29;20079;-73
2021/05/08 02:25:39;;;;;;;5.55;4.93;;;;;;;;;;4914718;29;20048;-72
2021/05/08 02:28:07;;;;;;;5.25;4.68;;;;;;;;;;4930086;29;20136;-73
2021/05/08 02:30:35;;;;;;;5.18;4.68;;;;;;;;;;4914921;29;20498;-73
2021/05/08 02:33:02;;;;;;;5.28;4.63;;;;;;;;;;4915786;29;20048;-73
2021/05/08 02:35:28;;;;;;;5.25;4.10;;;;;;;;;;4930166;29;20048;-73
2021/05/08 02:37:55;;;;;;;5.43;4.60;;;;;;;;;;4930252;29;20495;-73
2021/05/08 02:40:26;;;;;;;5.43;4.85;;;;;;;;;;4914685;29;20055;-73
2021/05/08 02:42:53;;;;;;;5.15;4.65;;;;;;;;;;4915531;29;20052;-73
2021/05/08 02:45:19;;;;;;;7.20;5.18;;;;;;;;;;4914200;29;20103;-73
2021/05/08 02:47:46;;;;;;;4.97;4.20;;;;;;;;;;4914129;29;20056;-73
2021/05/08 02:50:14;;;;;;;5.72;4.63;;;;;;;;;;4898863;29;20500;-74
2021/05/08 02:52:40;;;;;;;6.10;5.03;;;;;;;;;;4914489;29;20086;-73
2021/05/08 02:55:07;;;;;;;6.43;4.72;;;;;;;;;;4914198;29;20107;-74
2021/05/08 02:57:34;;;;;;;6.20;4.72;;;;;;;;;;4914196;29;20103;-73
2021/05/08 03:00:00;;;;;;;6.22;4.93;;;;;;;;;;4915485;29;20123;-74
2021/05/08 03:02:26;;;;;;;5.40;4.60;;;;;;;;;;4915438;29;20095;-75
2021/05/08 03:04:54;;;;;;;5.75;4.80;;;;;;;;;;4915414;29;20048;-73
2021/05/08 03:07:20;;;;;;;6.70;4.78;;;;;;;;;;4913932;29;20060;-73
2021/05/08 03:09:46;;;;;;;6.03;4.53;;;;;;;;;;4915266;29;20048;-73
2021/05/08 03:12:12;;;;;;;5.50;4.57;;;;;;;;;;4915662;29;20056;-73
2021/05/08 03:14:39;;;;;;;5.85;4.68;;;;;;;;;;4915230;29;20056;-73
2021/05/08 03:17:05;;;;;;;5.82;4.47;;;;;;;;;;4914869;29;20559;-74
2021/05/08 03:19:33;;;;;;;6.28;5.07;;;;;;;;;;4915403;29;20052;-74
2021/05/08 03:21:59;;;;;;;6.07;4.97;;;;;;;;;;4915210;29;20052;-72
2021/05/08 03:24:25;;;;;;;7.18;5.07;;;;;;;;;;4915225;29;20677;-72
2021/05/08 03:26:51;;;;;;;6.82;5.05;;;;;;;;;;4914776;29;20547;-72
2021/05/08 03:29:18;;;;;;;6.90;5.00;;;;;;;;;;4915180;29;20056;-74
2021/05/08 03:31:44;;;;;;;6.07;4.85;;;;;;;;;;4915306;29;20112;-74
2021/05/08 03:34:10;;;;;;;5.85;4.80;;;;;;;;;;4915199;29;20059;-74
2021/05/08 03:36:36;;;;;;;7.32;5.30;;;;;;;;;;4913715;29;20500;-74
2021/05/08 03:39:04;;;;;;;6.78;4.93;;;;;;;;;;4915040;29;20059;-74
2021/05/08 03:41:30;;;;;;;6.78;5.40;;;;;;;;;;4915242;29;20447;-74
2021/05/08 03:43:56;;;;;;;6.45;4.85;;;;;;;;;;4915027;29;20115;-74
2021/05/08 03:46:23;;;;;;;6.18;4.95;;;;;;;;;;4914769;29;20111;-74
2021/05/08 03:48:49;;;;;;;6.43;4.68;;;;;;;;;;4913953;29;20508;-73
2021/05/08 03:51:16;;;;;;;7.25;5.40;;;;;;;;;;4913968;29;20059;-73
2021/05/08 03:53:42;;;;;;;6.47;4.50;;;;;;;;;;4913840;29;20056;-74
2021/05/08 03:56:08;;;;;;;7.32;4.90;;;;;;;;;;4916149;29;20696;-73
2021/05/08 03:58:34;;;;;;;7.82;5.50;;;;;;;;;;4909298;29;20468;-74
2021/05/08 04:01:00;;;;;;;5.95;5.20;;;;;;;;;;4918010;29;20153;-73
2021/05/08 04:03:27;;;;;;;5.05;4.60;;;;;;;;;;4917916;29;20405;-74
2021/05/08 04:05:53;;;;;;;6.38;4.93;;;;;;;;;;4916342;29;20048;-74
2021/05/08 04:08:19;;;;;;;5.97;5.13;;;;;;;;;;4916907;29;20051;-74
2021/05/08 04:10:49;;;;;;;8.95;5.35;;;;;;;;;;4875299;29;26204;-74
2021/05/08 04:13:16;;;;;;;8.68;5.25;;;;;;;;;;4914987;29;20463;-73
2021/05/08 04:15:42;;;;;;;6.28;5.15;;;;;;;;;;4918292;29;20052;-73
2021/05/08 04:18:09;;;;;;;5.22;4.72;;;;;;;;;;4957779;23;20036;-67
2021/05/08 04:20:35;;;;;;;7.28;5.30;;;;;;;;;;4936981;29;20477;-68
2021/05/08 04:23:02;;;;;;;8.07;5.18;;;;;;;;;;4935752;29;20470;-69
2021/05/08 04:25:28;;;;;;;6.53;5.40;;;;;;;;;;4925246;29;20462;-69
2021/05/08 04:27:54;;;;;;;6.78;5.30;;;;;;;;;;4915441;29;20103;-68
2021/05/08 04:30:21;;;;;;;8.73;5.45;;;;;;;;;;4918464;29;20107;-68
2021/05/08 04:32:47;;;;;;;6.07;5.03;;;;;;;;;;4901721;29;20096;-67
2021/05/08 04:35:13;;;;;;;6.20;5.10;;;;;;;;;;4903127;29;20060;-67
2021/05/08 04:37:39;;;;;;;6.93;5.30;;;;;;;;;;4902657;29;20055;-68
2021/05/08 04:40:06;;;;;;;7.18;5.60;;;;;;;;;;4904440;29;20060;-68
2021/05/08 04:42:32;;;;;;;7.20;5.65;;;;;;;;;;4888415;29;20065;-67
2021/05/08 04:44:59;;;;;;;5.28;4.78;;;;;;;;;;4901405;29;20063;-68
2021/05/08 04:47:26;;;;;;;7.70;5.50;;;;;;;;;;4900780;29;20055;-68
2021/05/08 04:49:57;;;;;;;6.38;5.47;;;;;;;;;;4918105;29;20052;-69
2021/05/08 04:52:24;;;;;;;6.07;5.38;;;;;;;;;;4917067;29;20104;-68
2021/05/08 04:54:51;;;;;;;6.45;5.28;;;;;;;;;;4901304;29;20107;-69
2021/05/08 04:57:17;;;;;;;7.13;5.78;;;;;;;;;;4917057;29;20107;-68
2021/05/08 04:59:43;;;;;;;5.55;4.95;;;;;;;;;;4905181;29;20658;-70
2021/05/08 05:02:09;;;;;;;6.85;5.60;;;;;;;;;;4915890;29;20056;-69
2021/05/08 05:04:35;;;;;;;8.60;5.47;;;;;;;;;;4918102;29;20056;-68
2021/05/08 05:07:02;;;;;;;8.40;5.43;;;;;;;;;;4916074;29;20052;-69
2021/05/08 05:09:29;;;;;;;7.97;6.38;;;;;;;;;;4885446;29;20440;-69
2021/05/08 05:11:55;;;;;;;9.38;6.45;;;;;;;;;;4885503;29;20052;-70
2021/05/08 05:14:22;;;;;;;8.50;5.88;;;;;;;;;;4900490;29;20056;-69
2021/05/08 05:16:48;;;;;;;6.70;5.30;;;;;;;;;;4917244;29;20080;-68
2021/05/08 05:19:14;;;;;;;6.22;5.45;;;;;;;;;;4916923;29;20052;-69
2021/05/08 05:21:40;;;;;;;7.18;5.57;;;;;;;;;;4917392;29;20107;-69
2021/05/08 05:24:07;;;;;;;6.18;5.30;;;;;;;;;;4917212;29;20048;-68
2021/05/08 05:26:33;;;;;;;6.25;5.32;;;;;;;;;;4900335;29;20044;-70
2021/05/08 05:29:00;;;;;;;6.22;5.18;;;;;;;;;;4917137;29;20064;-70
2021/05/08 05:31:26;;;;;;;6.68;5.40;;;;;;;;;;4909502;29;20562;-69
2021/05/08 05:33:53;;;;;;;8.40;6.00;;;;;;;;;;4900593;29;20048;-70
2021/05/08 05:36:19;;;;;;;7.50;5.45;;;;;;;;;;4897428;29;20052;-70
2021/05/08 05:38:46;;;;;;;6.72;6.00;;;;;;;;;;4896547;29;20056;-69
2021/05/08 05:41:12;;;;;;;7.63;5.82;;;;;;;;;;4896223;29;20567;-70
2021/05/08 05:43:38;;;;;;;5.97;4.85;;;;;;;;;;4896919;29;20108;-70
2021/05/08 05:46:04;;;;;;;9.00;6.00;;;;;;;;;;4896473;29;20112;-70
2021/05/08 05:48:30;;;;;;;6.32;4.95;;;;;;;;;;4896712;29;20049;-69
2021/05/08 05:50:56;;;;;;;10.60;5.65;;;;;;;;;;4896777;29;20056;-69
2021/05/08 05:53:22;;;;;;;7.07;5.32;;;;;;;;;;4897992;29;20401;-69
2021/05/08 05:55:48;;;;;;;8.32;5.80;;;;;;;;;;4898607;29;20103;-69
2021/05/08 05:58:14;;;;;;;6.55;5.72;;;;;;;;;;4897363;29;20104;-69
2021/05/08 06:00:40;;;;;;;8.70;5.10;;;;;;;;;;4905446;29;20080;-68
2021/05/08 06:03:06;;;;;;;6.85;5.40;;;;;;;;;;4917015;29;20056;-71
2021/05/08 06:05:32;;;;;;;8.00;5.72;;;;;;;;;;4899658;29;20051;-71
2021/05/08 06:07:58;;;;;;;8.80;5.78;;;;;;;;;;4916411;29;20111;-72
2021/05/08 06:10:25;;;;;;;6.70;4.95;;;;;;;;;;4916466;29;20056;-74
2021/05/08 06:12:51;;;;;;;8.68;5.35;;;;;;;;;;4899517;29;20664;-73
2021/05/08 06:15:17;;;;;;;6.95;5.57;;;;;;;;;;4916138;29;20139;-71
2021/05/08 06:17:43;;;;;;;6.20;5.28;;;;;;;;;;4898610;29;20056;-71
2021/05/08 06:20:10;;;;;;;7.63;5.35;;;;;;;;;;4876035;29;20048;-70
2021/05/08 06:22:36;;;;;;;7.28;5.65;;;;;;;;;;4906741;29;20479;-69
2021/05/08 06:25:03;;;;;;;6.72;5.50;;;;;;;;;;4900788;29;20052;-68
2021/05/08 06:27:29;;;;;;;6.30;5.35;;;;;;;;;;4900204;29;20693;-69
2021/05/08 06:29:56;;;;;;;6.40;5.55;;;;;;;;;;4893178;29;20056;-68
2021/05/08 06:32:22;;;;;;;6.25;5.22;;;;;;;;;;4909986;29;20419;-68
2021/05/08 06:34:49;;;;;;;6.75;5.85;;;;;;;;;;4905849;29;20056;-68
2021/05/08 06:37:15;;;;;;;6.93;5.60;;;;;;;;;;4888646;29;20059;-68
2021/05/08 06:39:42;;;;;;;7.65;5.95;;;;;;;;;;4897404;29;20080;-66
2021/05/08 06:42:08;;;;;;;6.63;5.18;;;;;;;;;;4905735;29;20052;-66
2021/05/08 06:44:34;;;;;;;6.85;4.95;;;;;;;;;;4908031;29;20092;-66
2021/05/08 06:47:00;;;;;;;6.00;4.75;;;;;;;;;;4907862;29;20056;-66
2021/05/08 06:49:26;;;;;;;5.45;4.95;;;;;;;;;;4903476;29;20052;-66
2021/05/08 06:51:53;;;;;;;6.53;4.80;;;;;;;;;;4896310;29;20056;-65
2021/05/08 06:54:19;;;;;;;5.10;4.60;;;;;;;;;;4901165;29;20108;-66
2021/05/08 06:56:45;;;;;;;5.32;4.68;;;;;;;;;;4884734;29;20595;-65
2021/05/08 06:59:11;;;;;;;5.30;4.60;;;;;;;;;;4904560;29;20519;-65
2021/05/08 07:01:40;;;;;;;6.22;4.57;;;;;;;;;;4897292;29;20139;-66
2021/05/08 07:04:07;;;;;;;6.20;4.82;;;;;;;;;;4914718;29;20531;-66
2021/05/08 07:06:33;;;;;;;5.68;4.93;;;;;;;;;;4913446;29;20052;-66
2021/05/08 07:09:00;;;;;;;6.20;4.63;;;;;;;;;;4913063;29;20478;-66
2021/05/08 07:11:26;;;;;;;5.90;4.60;;;;;;;;;;4914138;29;20055;-66
2021/05/08 07:13:52;;;;;;;5.25;4.50;;;;;;;;;;4915487;29;20080;-66
2021/05/08 07:16:18;;;;;;;4.68;4.25;;;;;;;;;;4915412;29;20048;-66
2021/05/08 07:18:44;;;;;;;13.10;6.38;;;;;;;;;;4898580;29;20076;-66
2021/05/08 07:21:11;;;;;;;4.50;4.00;;;;;;;;;;4914370;29;20168;-66
2021/05/08 07:23:37;;;;;;;5.32;4.32;;;;;;;;;;4915774;29;20059;-66
2021/05/08 07:26:03;;;;;;;4.15;3.55;;;;;;;;;;4915492;29;20464;-67
2021/05/08 07:28:29;;;;;;;5.80;3.60;;;;;;;;;;4916041;29;20108;-67
2021/05/08 07:30:56;;;;;;;4.15;3.75;;;;;;;;;;4901447;29;20512;-68
2021/05/08 07:33:22;;;;;;;4.82;4.32;;;;;;;;;;4902968;29;20056;-67
2021/05/08 07:35:49;;;;;;;4.45;3.72;;;;;;;;;;4902325;29;20048;-67
2021/05/08 07:38:16;;;;;;;3.90;3.50;;;;;;;;;;4887037;29;20052;-66
2021/05/08 07:40:42;;;;;;;3.95;2.90;;;;;;;;;;4890705;29;20060;-72
2021/05/08 07:43:09;;;;;;;4.97;2.95;;;;;;;;;;4911861;29;20048;-69
2021/05/08 07:45:37;;;;;;;2.95;2.45;;;;;;;;;;4885746;29;20052;-69
2021/05/08 07:48:05;;;;;;;4.03;2.47;;;;;;;;;;4892502;29;20139;-68
2021/05/08 07:50:31;;;;;;;3.05;2.28;;;;;;;;;;4905430;29;20132;-68
2021/05/08 07:52:58;;;;;;;3.28;2.33;;;;;;;;;;4891830;29;20408;-68
2021/05/08 07:55:25;;;;;;;3.72;2.60;;;;;;;;;;4906121;29;20416;-68
2021/05/08 07:57:51;;;;;;;3.47;2.47;;;;;;;;;;4908486;29;20076;-68
2021/05/08 08:00:19;;;;;;;4.50;2.50;;;;;;;;;;4905316;29;20144;-68
2021/05/08 08:02:45;;;;;;;2.63;2.28;;;;;;;;;;4907025;29;20108;-69
2021/05/08 08:05:13;;;;;;;2.95;2.10;;;;;;;;;;4912969;29;20147;-68
2021/05/08 08:07:40;;;;;;;2.88;2.47;;;;;;;;;;4903019;29;20076;-68
2021/05/08 08:10:07;;;;;;;2.50;2.30;;;;;;;;;;4899417;29;20507;-66
2021/05/08 08:12:35;;;;;;;4.57;2.42;;;;;;;;;;4906557;29;20056;-66
2021/05/08 08:15:02;;;;;;;3.63;2.80;;;;;;;;;;4895528;29;20056;-68
2021/05/08 08:17:31;;;;;;;2.83;2.38;;;;;;;;;;4887931;29;20048;-69
2021/05/08 08:19:58;;;;;;;3.78;2.33;;;;;;;;;;4908382;29;20408;-68
2021/05/08 08:22:24;;;;;;;2.40;2.10;;;;;;;;;;4908239;29;20322;-67
2021/05/08 08:24:51;;;;;;;2.80;2.42;;;;;;;;;;4906414;29;20054;-66
2021/05/08 08:27:17;;;;;;;5.68;2.72;;;;;;;;;;4900180;29;20060;-67
2021/05/08 08:29:43;;;;;;;3.03;2.10;;;;;;;;;;4908378;29;20056;-67
2021/05/08 08:32:09;;;;;;;2.20;2.00;;;;;;;;;;4910323;29;20063;-68
2021/05/08 08:34:37;;;;;;;3.13;2.42;;;;;;;;;;4912341;29;20056;-68
2021/05/08 08:37:04;;;;;;;5.82;2.80;;;;;;;;;;4908382;29;20056;-68
2021/05/08 08:39:31;;;;;;;3.42;2.35;;;;;;;;;;4900095;29;20479;-68
2021/05/08 08:41:57;;;;;;;2.40;2.17;;;;;;;;;;4890666;29;20128;-68
2021/05/08 08:44:23;;;;;;;3.72;1.85;;;;;;;;;;4901422;29;20049;-68
2021/05/08 08:46:50;;;;;;;3.88;2.10;;;;;;;;;;4903167;29;20051;-68
2021/05/08 08:49:16;;;;;;;5.13;2.08;;;;;;;;;;4905493;29;20059;-68
2021/05/08 08:51:43;;;;;;;3.17;2.80;;;;;;;;;;4905725;29;20055;-70
2021/05/08 08:54:11;;;;;;;3.22;2.15;;;;;;;;;;4906387;29;20052;-70
2021/05/08 08:56:40;;;;;;;3.33;2.20;;;;;;;;;;4878299;29;20072;-71
2021/05/08 09:01:51;;;;;;;3.95;2.40;;;;;;;;;;4888957;29;20571;-71
2021/05/08 09:04:17;;;;;;;5.45;3.10;;;;;;;;;;4897824;29;20056;-71
2021/05/08 09:06:45;;;;;;;3.08;2.28;;;;;;;;;;4875791;29;20588;-71
2021/05/08 09:09:11;;;;;;;2.28;1.98;;;;;;;;;;4876526;29;20064;-71
2021/05/08 09:11:57;;;;;;;3.42;2.33;;;;;;;;;;4896293;29;20075;-71
2021/05/08 09:14:24;;;;;;;2.90;1.90;;;;;;;;;;4899777;29;20177;-71
2021/05/08 09:17:09;;;;;;;2.53;1.88;;;;;;;;;;4904713;29;20044;-71
2021/05/08 09:19:37;;;;;;;2.30;1.58;;;;;;;;;;4903229;29;20052;-71
2021/05/08 09:22:36;;;;;;;1.63;1.40;;;;;;;;;;4888035;29;20096;-71
2021/05/08 09:25:16;;;;;;;2.78;1.70;;;;;;;;;;4903097;29;20075;-71
2021/05/08 09:27:50;;;;;;;3.70;1.73;;;;;;;;;;4903512;29;20097;-71
2021/05/08 09:30:19;;;;;;;2.88;1.52;;;;;;;;;;4906858;29;20060;-71
2021/05/08 09:33:00;;;;;;;3.38;1.58;;;;;;;;;;4904361;29;20059;-72
2021/05/08 09:35:30;;;;;;;4.00;2.15;;;;;;;;;;4896438;29;20099;-71
2021/05/08 09:38:16;;;;;;;1.88;1.30;;;;;;;;;;4888650;29;20083;-71
2021/05/08 09:40:43;;;;;;;1.50;1.40;;;;;;;;;;4905049;29;20056;-72
2021/05/08 09:43:14;;;;;;;1.98;1.60;;;;;;;;;;4904174;29;20108;-73
2021/05/08 09:45:42;;;;;;;2.38;1.33;;;;;;;;;;4901284;29;20505;-72
2021/05/08 09:48:21;;;;;;;1.38;1.08;;;;;;;;;;4902326;29;20052;-72
2021/05/08 09:51:25;;;;;;;1.80;1.58;;;;;;;;;;4904268;29;20408;-72
2021/05/08 09:53:53;;;;;;;2.42;1.80;;;;;;;;;;4905769;29;20133;-73
2021/05/08 09:56:38;;;;;;;3.22;2.05;;;;;;;;;;4902665;29;20045;-73
2021/05/08 09:59:31;;;;;;;2.75;1.40;;;;;;;;;;4907399;29;20052;-71
2021/05/08 10:02:04;;;;;;;3.80;1.55;;;;;;;;;;4905779;29;20084;-71
2021/05/08 10:04:43;;;;;;;3.03;1.40;;;;;;;;;;4905306;29;20427;-72
2021/05/08 10:07:11;;;;;;;1.80;1.70;;;;;;;;;;4888127;29;20053;-71
2021/05/08 10:09:39;;;;;;;1.88;1.50;;;;;;;;;;4886365;29;20059;-71
2021/05/08 10:12:11;;;;;;;2.20;1.50;;;;;;;;;;4896634;29;20508;-72
2021/05/08 10:14:40;;;;;;;3.08;1.70;;;;;;;;;;4880411;29;20056;-73
2021/05/08 10:17:26;;;;;;;5.00;1.40;;;;;;;;;;4881582;29;20051;-71
2021/05/08 10:20:10;;;;;;;3.42;1.70;;;;;;;;;;4931596;23;20068;-73
2021/05/08 10:22:52;;;;;;;3.05;1.40;;;;;;;;;;4887170;29;20475;-76
2021/05/08 10:25:19;;;;;;;2.47;1.65;;;;;;;;;;4862336;29;20575;-74
2021/05/08 10:27:45;;;;;;;2.50;1.50;;;;;;;;;;4902634;29;20173;-76
2021/05/08 10:30:50;;;;;;;4.05;1.60;;;;;;;;;;4869660;29;20053;-73
2021/05/08 10:33:18;;;;;;;1.60;1.50;;;;;;;;;;4881924;29;20047;-73
2021/05/08 10:35:51;;;;;;;2.03;1.33;;;;;;;;;;4870865;29;20081;-74
2021/05/08 10:38:34;;;;;;;1.92;1.20;;;;;;;;;;4888297;29;20045;-74
2021/05/08 10:41:04;;;;;;;1.33;1.23;;;;;;;;;;4893786;29;20057;-74
2021/05/08 10:43:38;;;;;;;4.00;1.83;;;;;;;;;;4895861;29;20067;-76
2021/05/08 10:46:05;;;;;;;2.70;1.55;;;;;;;;;;4892696;29;20048;-75
2021/05/08 10:48:33;;;;;;;2.42;1.25;;;;;;;;;;4885230;29;20519;-75
2021/05/08 10:51:00;;;;;;;2.35;1.13;;;;;;;;;;4886694;29;20103;-75
2021/05/08 10:53:38;;;;;;;4.10;1.58;;;;;;;;;;4885029;29;20088;-76
2021/05/08 10:56:05;;;;;;;1.90;1.50;;;;;;;;;;4881396;29;20052;-74
2021/05/08 10:58:33;;;;;;;2.17;1.40;;;;;;;;;;4895813;29;20056;-75
2021/05/08 11:01:06;;;;;;;2.15;1.20;;;;;;;;;;4863417;29;20113;-75
2021/05/08 11:03:53;;;;;;;1.77;1.25;;;;;;;;;;4896567;29;20139;-75
2021/05/08 11:06:19;;;;;;;2.22;1.20;;;;;;;;;;4895611;29;20123;-74
2021/05/08 11:08:47;;;;;;;2.30;1.27;;;;;;;;;;4899281;29;20052;-76
2021/05/08 11:11:25;;;;;;;2.85;1.13;;;;;;;;;;4871825;29;20052;-75
2021/05/08 11:13:59;;;;;;;1.52;1.02;;;;;;;;;;4888680;29;20056;-73
2021/05/08 11:16:31;;;;;;;1.40;0.95;;;;;;;;;;4895525;29;20053;-75
2021/05/08 11:19:04;;;;;;;1.92;0.90;;;;;;;;;;4855484;29;20104;-74
2021/05/08 11:21:31;;;;;;;2.58;1.30;;;;;;;;;;4881757;29;20739;-75
2021/05/08 11:24:04;;;;;;;1.85;1.17;;;;;;;;;;4898946;29;20139;-75
2021/05/08 11:26:42;;;;;;;1.23;1.08;;;;;;;;;;4883224;29;20496;-75
2021/05/08 11:29:09;;;;;;;3.15;1.30;;;;;;;;;;4866867;29;20063;-74
2021/05/08 11:31:45;;;;;;;4.05;1.17;;;;;;;;;;4897705;29;20059;-75
2021/05/08 11:34:19;;;;;;;1.30;0.90;;;;;;;;;;4874907;29;20049;-76
2021/05/08 11:36:50;;;;;;;1.63;1.10;;;;;;;;;;4851753;29;20080;-74
2021/05/08 11:39:36;;;;;;;1.53;1.13;;;;;;;;;;4872444;29;20136;-75
2021/05/08 11:42:39;;;;;;;2.63;1.00;;;;;;;;;;4882342;29;20048;-76
2021/05/08 11:45:10;;;;;;;1.80;1.08;;;;;;;;;;4888724;29;20048;-76
2021/05/08 11:47:38;;;;;;;2.60;1.35;;;;;;;;;;4898699;29;20081;-76
2021/05/08 11:50:13;;;;;;;4.82;2.25;;;;;;;;;;4898585;29;20044;-73
2021/05/08 11:52:49;;;;;;;2.50;1.10;;;;;;;;;;4898593;29;20475;-76
2021/05/08 11:55:19;;;;;;;1.27;1.05;;;;;;;;;;4898366;29;20057;-74
2021/05/08 12:00:37;;;;;;;3.05;1.30;;;;;;;;;;4945382;23;20058;-75
2021/05/08 12:03:14;;;;;;;2.20;1.08;;;;;;;;;;4927008;29;20082;-77
2021/05/08 12:05:43;;;;;;;1.83;1.17;;;;;;;;;;4923009;29;20047;-76
2021/05/08 12:08:32;;;;;;;2.65;1.58;;;;;;;;;;4905462;29;20067;-76
2021/05/08 12:11:20;;;;;;;2.10;1.70;;;;;;;;;;4942266;29;20113;-76
2021/05/08 12:13:47;;;;;;;2.38;1.10;;;;;;;;;;4943413;29;20059;-76
2021/05/08 12:22:46;;;;;;;1.45;0.90;;;;;;;;;;4909363;29;20052;-76
2021/05/08 12:25:43;;;;;;;1.73;1.10;;;;;;;;;;4898138;29;20061;-75
2021/05/08 12:28:30;;;;;;;2.97;1.27;;;;;;;;;;4882890;29;20075;-75
2021/05/08 12:32:02;;;;;;;3.10;1.05;;;;;;;;;;4865935;29;20056;-76
2021/05/08 12:34:57;;;;;;;0.90;0.80;;;;;;;;;;4841057;29;20052;-76
2021/05/08 12:44:37;;;;;;;0.70;0.70;;;;;;;;;;4862298;29;465509;-75
2021/05/08 12:47:23;;;;;;;2.13;0.90;;;;;;;;;;4943496;29;20047;-74
2021/05/08 12:50:12;;;;;;;1.00;0.90;;;;;;;;;;4946646;29;20054;-74
2021/05/08 12:53:02;;;;;;;2.00;1.10;;;;;;;;;;4930608;29;20058;-74
2021/05/08 12:55:37;;;;;;;1.67;1.23;;;;;;;;;;4930363;29;20145;-74
2021/05/08 12:58:08;;;;;;;1.15;1.00;;;;;;;;;;4927161;29;20530;-75
2021/05/08 13:00:43;;;;;;;1.30;1.20;;;;;;;;;;4921213;29;20415;-75
2021/05/08 13:06:03;;;;;;;2.17;1.00;;;;;;;;;;4926675;29;20043;-75
2021/05/08 13:08:50;;;;;;;1.00;0.90;;;;;;;;;;4947784;29;20055;-74
2021/05/08 13:11:37;;;;;;;1.02;0.75;;;;;;;;;;4927875;29;20054;-75
2021/05/08 13:14:23;;;;;;;1.73;0.88;;;;;;;;;;4927253;29;20052;-75
2021/05/08 13:16:51;;;;;;;1.60;1.10;;;;;;;;;;4925072;29;20043;-75
2021/05/08 13:19:18;;;;;;;1.13;0.80;;;;;;;;;;4940380;29;20047;-73
2021/05/08 13:21:45;;;;;;;1.25;1.05;;;;;;;;;;4946254;29;20495;-73
2021/05/08 13:24:11;;;;;;;1.85;1.20;;;;;;;;;;4930521;29;20570;-75
2021/05/08 13:26:39;;;;;;;1.15;1.00;;;;;;;;;;4941026;28;20048;-74
2021/05/08 13:29:05;;;;;;;5.68;3.30;;;;;;;;;;4933033;29;20043;-75
2021/05/08 13:31:31;;;;;;;2.20;1.10;;;;;;;;;;4946384;28;20095;-75
2021/05/08 13:33:59;;;;;;;2.63;1.05;;;;;;;;;;4930090;29;20051;-75
2021/05/08 13:36:26;;;;;;;1.25;1.13;;;;;;;;;;4929536;29;20055;-74
2021/05/08 13:38:53;;;;;;;2.15;1.02;;;;;;;;;;4941713;29;20056;-74
2021/05/08 13:41:19;;;;;;;3.45;0.90;;;;;;;;;;4932980;29;20051;-74
2021/05/08 13:43:45;;;;;;;3.67;1.30;;;;;;;;;;4931862;29;20155;-74
2021/05/08 13:46:12;;;;;;;1.38;1.02;;;;;;;;;;4926889;29;20050;-74
2021/05/08 13:48:38;;;;;;;1.48;0.90;;;;;;;;;;4930985;29;20102;-74
2021/05/08 13:51:05;;;;;;;1.00;0.90;;;;;;;;;;4931918;29;20052;-74
2021/05/08 13:53:31;;;;;;;1.45;1.05;;;;;;;;;;4933523;29;20082;-74
2021/05/08 13:55:58;;;;;;;1.77;1.13;;;;;;;;;;4937009;29;20075;-74
2021/05/08 13:58:24;;;;;;;1.85;1.05;;;;;;;;;;4922916;29;20671;-74
2021/05/08 14:00:50;;;;;;;2.90;1.27;;;;;;;;;;4938632;29;20059;-74
2021/05/08 14:03:17;;;;;;;2.80;1.08;;;;;;;;;;4927939;29;20683;-74
2021/05/08 14:05:44;;;;;;;1.35;1.00;;;;;;;;;;4939206;29;20051;-75
2021/05/08 14:08:10;;;;;;;3.25;1.27;;;;;;;;;;4914648;29;20046;-75
2021/05/08 14:10:36;;;;;;;1.80;0.88;;;;;;;;;;4938722;29;20142;-73
2021/05/08 14:13:02;;;;;;;1.65;0.90;;;;;;;;;;4940493;29;20048;-75
2021/05/08 14:15:34;;;;;;;1.50;1.15;;;;;;;;;;4940649;29;20113;-77
2021/05/08 14:18:00;;;;;;;3.05;1.00;;;;;;;;;;4924105;29;20052;-75
2021/05/08 14:20:28;;;;;;;1.20;0.88;;;;;;;;;;4941623;29;20135;-74
2021/05/08 14:22:54;;;;;;;2.55;1.00;;;;;;;;;;4922007;29;20062;-73
2021/05/08 14:25:21;;;;;;;1.20;0.80;;;;;;;;;;4939897;29;20431;-74
2021/05/08 14:27:47;;;;;;;1.20;0.80;;;;;;;;;;4921363;29;20420;-75
2021/05/08 14:30:14;;;;;;;1.83;0.80;;;;;;;;;;4913755;29;20110;-74
2021/05/08 14:32:41;;;;;;;1.00;0.82;;;;;;;;;;4941360;29;20079;-75
2021/05/08 14:35:08;;;;;;;1.20;0.80;;;;;;;;;;4938658;29;20047;-75
2021/05/08 14:37:34;;;;;;;2.00;0.85;;;;;;;;;;4951077;28;20122;-75
2021/05/08 14:40:00;;;;;;;1.23;0.82;;;;;;;;;;4923821;29;20052;-75
2021/05/08 14:42:27;;;;;;;1.15;0.70;;;;;;;;;;4929853;29;20055;-75
2021/05/08 14:44:53;;;;;;;3.25;1.00;;;;;;;;;;4940568;29;20139;-74
2021/05/08 14:47:19;;;;;;;0.82;0.82;;;;;;;;;;4941420;29;20110;-73
2021/05/08 14:49:47;;;;;;;0.98;0.77;;;;;;;;;;4940135;29;20047;-75
2021/05/08 14:52:13;;;;;;;0.75;0.70;;;;;;;;;;4938868;29;20055;-74
2021/05/08 14:54:39;;;;;;;1.38;0.70;;;;;;;;;;4940319;29;20055;-72
2021/05/08 14:57:05;;;;;;;1.25;0.70;;;;;;;;;;4947695;29;20047;-72
2021/05/08 14:59:31;;;;;;;1.88;0.82;;;;;;;;;;4949013;29;20098;-76
2021/05/08 15:01:58;;;;;;;1.63;1.00;;;;;;;;;;4946029;29;20055;-74
2021/05/08 15:04:25;;;;;;;2.22;1.38;;;;;;;;;;4945408;29;20569;-72
2021/05/08 15:06:51;;;;;;;2.15;1.10;;;;;;;;;;4932455;29;20067;-70
2021/05/08 15:09:18;;;;;;;2.20;0.82;;;;;;;;;;4948425;29;20083;-70
2021/05/08 15:11:51;;;;;;;1.15;1.05;;;;;;;;;;4947782;29;20478;-70
2021/05/08 15:14:17;;;;;;;1.50;1.10;;;;;;;;;;4950351;29;20474;-71
2021/05/08 15:16:43;;;;;;;1.10;0.90;;;;;;;;;;4949134;29;20444;-70